SLET/SRZ METAR and TAF weather

Enter ICAO airport designator
Station Type Date Time Source
SLET METAR 2024/02/26 18:00 UTC NOAA

SLET 261800Z 36013KT 9999 FEW023 SCT080 31/22 Q1014


Station Type Date Time Source
SLET Decoded METAR 2024/02/26 18:00 UTC NOAA

Santa Cruz / El Trompillo, Bolivia (SLET) 17-48S 063-11W 414M
Feb 26, 2024 - 01:00 PM EST / 2024.02.26 1800 UTC
Wind: from the N (360 degrees) at 15 MPH (13 KT):0
Visibility: greater than 7 mile(s):0
Sky conditions: partly cloudy
Temperature: 87 F (31 C)
Heat index: 92.3 F (33.5 C):1
Dew Point: 71 F (22 C)
Relative Humidity: 58%
Pressure (altimeter): 29.94 in. Hg (1014 hPa)
ob: SLET 261800Z 36013KT 9999 FEW023 SCT080 31/22 Q1014
cycle: 18

Station Type Date Time Source
SLET TAF 2024/02/26 18:50 UTC NOAA